Alpicat, Spain
Current Conditions -  °F | °C
As of 8:00 AM on Friday 28 Nov 2014 (Local Time) from LERS Reporting Station
Broken Clouds Broken Clouds  
Wind Chill: 61°   Ceiling: 2000
Heat Index: 61°   Visibility: 6mi
Dew Point: 57°   Wind: 7mph
Humidity: 88%   Direction: 130°SE
Pressure: 29.35"   Gusts: NA
Location:  41.67°N, 0.56°E
Report Text: LERS 280700Z 13006KT 090V170 9999 FEW014 BKN020 16/14 Q0994
Loading
Personal Weather Stations






























Interactive Weather Map New forecast layout! Learn more

10-Day Weather Forecast

Advertisements
Track Severe Weather on mobile